createdAt,value
2019-02-26T00:00:49.607Z,33.73
2019-02-26T00:03:19.876Z,28.53
2019-02-26T00:05:51.776Z,34.40
2019-02-26T00:08:21.824Z,38.07
2019-02-26T00:10:54.729Z,31.13
2019-02-26T00:13:23.422Z,34.43
2019-02-26T00:15:52.983Z,29.93
2019-02-26T00:18:23.535Z,33.57
2019-02-26T00:20:54.078Z,31.57
2019-02-26T00:23:25.335Z,40.63
2019-02-26T00:25:54.367Z,32.65
2019-02-26T00:28:23.481Z,31.30
2019-02-26T00:30:52.651Z,29.60
2019-02-26T00:33:23.065Z,30.20
2019-02-26T00:35:52.693Z,27.87
2019-02-26T00:38:21.807Z,32.00
2019-02-26T00:40:50.923Z,30.97
2019-02-26T00:43:23.262Z,29.40
2019-02-26T00:45:53.229Z,32.30
2019-02-26T00:48:21.908Z,30.70
2019-02-26T00:50:52.337Z,28.93
2019-02-26T00:53:23.663Z,28.57
2019-02-26T00:55:54.310Z,32.00
2019-02-26T00:58:23.300Z,27.20
2019-02-26T01:00:52.500Z,27.60
2019-02-26T01:03:21.624Z,22.73
2019-02-26T01:05:50.772Z,24.20
2019-02-26T01:08:19.974Z,30.90
2019-02-26T01:10:49.099Z,23.43
2019-02-26T01:13:20.112Z,26.33
2019-02-26T01:15:49.344Z,30.63
2019-02-26T01:18:20.827Z,23.47
2019-02-26T01:20:50.673Z,25.17
2019-02-26T01:23:22.170Z,28.87
2019-02-26T01:25:54.173Z,28.93
2019-02-26T01:28:22.631Z,26.90
2019-02-26T01:30:55.571Z,28.13
2019-02-26T01:33:24.725Z,25.32
2019-02-26T01:35:55.494Z,26.20
2019-02-26T01:38:25.169Z,28.03
2019-02-26T01:40:55.936Z,28.20
2019-02-26T01:43:25.243Z,27.97
2019-02-26T01:45:55.404Z,27.77
2019-02-26T01:48:24.832Z,29.17
2019-02-26T01:50:54.428Z,27.50
2019-02-26T01:53:24.795Z,24.40
2019-02-26T01:55:54.012Z,22.80
2019-02-26T01:58:23.082Z,24.83
2019-02-26T02:00:55.290Z,24.77
2019-02-26T02:03:25.303Z,22.70
2019-02-26T02:05:54.791Z,24.33
2019-02-26T02:08:24.912Z,21.47
2019-02-26T02:10:56.546Z,25.40
2019-02-26T02:13:28.259Z,23.50
2019-02-26T02:15:57.488Z,26.00
2019-02-26T02:18:29.367Z,26.63
2019-02-26T02:20:57.218Z,25.17
2019-02-26T02:23:28.036Z,21.07
2019-02-26T02:26:02.107Z,21.73
2019-02-26T02:28:29.108Z,21.47
2019-02-26T02:30:59.255Z,33.93
2019-02-26T02:33:30.040Z,30.10
2019-02-26T02:35:59.260Z,23.47
2019-02-26T02:38:28.360Z,22.90
2019-02-26T02:40:57.603Z,22.10
2019-02-26T02:43:26.737Z,26.03
2019-02-26T02:45:58.234Z,21.40
2019-02-26T02:48:26.670Z,25.77
2019-02-26T02:50:55.811Z,26.03
2019-02-26T02:53:27.445Z,22.93
2019-02-26T02:55:55.856Z,26.40
2019-02-26T02:58:26.051Z,29.70
2019-02-26T03:00:57.078Z,21.17
2019-02-26T03:03:26.325Z,24.50
2019-02-26T03:05:55.440Z,25.33
2019-02-26T03:08:24.556Z,21.97
2019-02-26T03:10:53.783Z,24.03
2019-02-26T03:13:25.210Z,24.30
2019-02-26T03:15:56.191Z,20.63
2019-02-26T03:18:24.513Z,21.30
2019-02-26T03:20:54.631Z,23.10
2019-02-26T03:23:24.572Z,27.80
2019-02-26T03:25:55.109Z,23.43
2019-02-26T03:28:24.348Z,26.40
2019-02-26T03:30:53.546Z,20.67
2019-02-26T03:33:22.613Z,25.03
2019-02-26T03:35:51.694Z,20.97
2019-02-26T03:38:23.262Z,22.37
2019-02-26T03:40:52.803Z,20.50
2019-02-26T03:43:22.343Z,22.23
2019-02-26T03:45:51.389Z,24.33
2019-02-26T03:48:20.593Z,24.30
2019-02-26T03:50:49.720Z,22.43
2019-02-26T03:53:19.115Z,23.73
2019-02-26T03:55:49.232Z,22.90
2019-02-26T03:58:18.480Z,24.17
2019-02-26T04:00:47.766Z,25.90
2019-02-26T04:03:17.531Z,24.27
2019-02-26T04:05:46.852Z,25.17
2019-02-26T04:08:16.663Z,24.13
2019-02-26T04:10:48.066Z,26.13
2019-02-26T04:13:17.569Z,36.83
2019-02-26T04:15:46.945Z,22.93
2019-02-26T04:18:16.179Z,25.20
2019-02-26T04:20:45.382Z,26.00
2019-02-26T04:23:19.173Z,23.77
2019-02-26T04:26:21.066Z,26.13
2019-02-26T04:29:04.320Z,24.55
2019-02-26T04:32:09.157Z,22.67
2019-02-26T04:35:19.064Z,23.80
2019-02-26T04:38:20.602Z,23.63
2019-02-26T04:41:13.399Z,25.67
2019-02-26T04:44:10.350Z,23.80
2019-02-26T04:46:54.031Z,19.77
2019-02-26T04:49:27.136Z,24.83
2019-02-26T04:51:54.464Z,24.07
2019-02-26T04:54:26.327Z,20.00
2019-02-26T04:56:54.658Z,22.63
2019-02-26T04:59:24.003Z,23.40
2019-02-26T05:01:54.985Z,24.10
2019-02-26T05:04:24.248Z,21.30
2019-02-26T05:06:53.278Z,22.57
2019-02-26T05:09:24.558Z,21.07
2019-02-26T05:11:53.248Z,28.07
2019-02-26T05:14:23.675Z,23.45
2019-02-26T05:16:52.849Z,24.87
2019-02-26T05:19:24.259Z,19.63
2019-02-26T05:21:53.443Z,25.53
2019-02-26T05:24:24.403Z,27.37
2019-02-26T05:26:54.129Z,25.70
2019-02-26T05:29:23.089Z,25.27
2019-02-26T05:31:52.217Z,23.87
2019-02-26T05:34:23.186Z,26.33
2019-02-26T05:36:52.101Z,23.93
2019-02-26T05:39:23.615Z,21.10
2019-02-26T05:41:54.549Z,45.83
2019-02-26T05:44:22.880Z,30.93
2019-02-26T05:46:54.060Z,42.20
2019-02-26T05:49:22.856Z,33.17
2019-02-26T05:51:53.505Z,41.93
2019-02-26T05:54:24.494Z,35.27
2019-02-26T05:56:53.660Z,28.20
2019-02-26T05:59:22.785Z,30.33
2019-02-26T06:01:54.789Z,29.83
2019-02-26T06:04:22.580Z,35.30
2019-02-26T06:06:55.574Z,38.63
2019-02-26T06:09:25.419Z,27.83
2019-02-26T06:11:53.201Z,28.47
2019-02-26T06:14:24.629Z,33.53
2019-02-26T06:16:55.821Z,32.70
2019-02-26T06:19:42.315Z,31.60
2019-02-26T06:22:17.164Z,29.23
2019-02-26T06:24:43.318Z,29.03
2019-02-26T06:27:15.408Z,25.07
2019-02-26T06:29:43.200Z,22.80
2019-02-26T06:32:14.129Z,24.53
2019-02-26T06:34:43.265Z,28.60
2019-02-26T06:37:17.271Z,28.70
2019-02-26T06:39:48.651Z,33.63
2019-02-26T06:42:17.180Z,30.43
2019-02-26T06:44:48.893Z,30.10
2019-02-26T06:47:17.271Z,22.93
2019-02-26T06:49:48.420Z,25.37
2019-02-26T06:52:18.025Z,22.93
2019-02-26T06:54:50.572Z,28.47
2019-02-26T06:57:18.004Z,23.63
2019-02-26T06:59:47.117Z,26.43
2019-02-26T07:02:16.159Z,24.00
2019-02-26T07:04:45.194Z,18.77
2019-02-26T07:07:14.628Z,19.77
2019-02-26T07:09:44.007Z,21.03
2019-02-26T07:12:14.617Z,25.00
2019-02-26T07:14:45.920Z,33.87
2019-02-26T07:17:14.672Z,31.30
2019-02-26T07:19:43.857Z,27.07
2019-02-26T07:22:13.606Z,24.67
2019-02-26T07:24:46.243Z,24.33
2019-02-26T07:27:14.485Z,23.37
2019-02-26T07:29:45.552Z,24.23
2019-02-26T07:32:15.439Z,22.87
2019-02-26T07:34:48.000Z,20.20
2019-02-26T07:37:16.185Z,149.37
2019-02-26T07:39:47.176Z,55.23
2019-02-26T07:42:18.656Z,26.67
2019-02-26T07:44:46.890Z,24.93
2019-02-26T07:47:16.137Z,20.33
2019-02-26T07:49:45.162Z,23.77
2019-02-26T07:52:41.770Z,20.43
2019-02-26T07:55:24.552Z,25.07
2019-02-26T07:57:53.375Z,22.53
2019-02-26T08:00:23.245Z,24.93
2019-02-26T08:02:56.444Z,27.97
2019-02-26T08:05:24.289Z,24.37
2019-02-26T08:07:56.426Z,22.97
2019-02-26T08:10:24.980Z,33.47
2019-02-26T08:12:53.953Z,26.90
2019-02-26T08:15:23.180Z,26.77
2019-02-26T08:17:56.031Z,27.77
2019-02-26T08:20:23.223Z,32.60
2019-02-26T08:22:54.132Z,41.73
2019-02-26T08:25:23.201Z,34.50
2019-02-26T08:27:53.954Z,42.67
2019-02-26T08:30:25.962Z,44.00
2019-02-26T08:32:56.095Z,88.27
2019-02-26T08:35:24.901Z,41.47
2019-02-26T08:37:54.049Z,43.13
2019-02-26T08:40:25.969Z,32.73
2019-02-26T08:42:55.252Z,33.27
2019-02-26T08:45:25.737Z,30.20
2019-02-26T08:47:55.042Z,28.87
2019-02-26T08:50:24.170Z,28.57
2019-02-26T08:52:56.206Z,25.62
2019-02-26T08:55:24.722Z,26.70
2019-02-26T08:57:54.647Z,27.97
2019-02-26T09:00:24.858Z,29.47
2019-02-26T09:02:56.553Z,27.97
2019-02-26T09:05:26.305Z,25.73
2019-02-26T09:07:55.825Z,25.13
2019-02-26T09:10:24.935Z,22.87
2019-02-26T09:12:54.200Z,29.57
2019-02-26T09:15:23.472Z,22.87
2019-02-26T09:17:52.533Z,24.67
2019-02-26T09:20:21.810Z,27.13
2019-02-26T09:22:53.433Z,27.27
2019-02-26T09:25:25.503Z,26.03
2019-02-26T09:27:52.514Z,27.17
2019-02-26T09:30:21.658Z,24.40
2019-02-26T09:32:52.428Z,24.00
2019-02-26T09:35:25.289Z,23.40
2019-02-26T09:37:54.984Z,24.00
2019-02-26T09:40:24.657Z,26.10
2019-02-26T09:42:56.699Z,24.43
2019-02-26T09:45:28.656Z,26.30
2019-02-26T09:47:58.005Z,23.73
2019-02-26T09:50:26.558Z,21.63
2019-02-26T09:52:58.745Z,20.30
2019-02-26T09:55:26.529Z,21.07
2019-02-26T09:57:55.725Z,23.90
2019-02-26T10:00:27.212Z,22.03
2019-02-26T10:02:55.794Z,20.33
2019-02-26T10:05:24.938Z,19.27
2019-02-26T10:07:56.880Z,20.67
2019-02-26T10:10:26.014Z,20.87
2019-02-26T10:12:57.394Z,20.33
2019-02-26T10:15:26.382Z,20.83
2019-02-26T10:18:58.760Z,21.23
2019-02-26T10:21:27.913Z,19.33
2019-02-26T10:23:59.328Z,19.17
2019-02-26T10:26:30.512Z,22.70
2019-02-26T10:29:04.216Z,18.30
2019-02-26T10:31:29.425Z,19.43
2019-02-26T10:33:58.616Z,16.63
2019-02-26T10:36:30.335Z,17.00
2019-02-26T10:39:44.366Z,18.87
2019-02-26T10:42:13.314Z,16.07
2019-02-26T10:44:42.786Z,15.77
2019-02-26T10:47:12.276Z,16.80
2019-02-26T10:49:41.512Z,14.43
2019-02-26T10:52:13.435Z,15.37
2019-02-26T10:54:43.665Z,14.53
2019-02-26T10:57:14.464Z,15.43
2019-02-26T10:59:44.934Z,17.53
2019-02-26T11:02:14.566Z,14.87
2019-02-26T11:04:46.914Z,15.27
2019-02-26T11:07:15.479Z,15.90
2019-02-26T11:10:03.862Z,24.33
2019-02-26T11:12:34.027Z,18.30
2019-02-26T11:15:04.957Z,17.52
2019-02-26T11:17:34.197Z,13.83
2019-02-26T11:20:04.661Z,16.87
2019-02-26T11:22:34.188Z,21.60
2019-02-26T11:25:03.407Z,17.90
2019-02-26T11:27:32.413Z,16.93
2019-02-26T11:30:02.073Z,19.10
2019-02-26T11:32:32.982Z,16.63
2019-02-26T11:35:02.983Z,15.50
2019-02-26T11:37:32.136Z,16.97
2019-02-26T11:40:02.751Z,17.43
2019-02-26T11:42:32.333Z,17.67
2019-02-26T11:45:01.553Z,19.27
2019-02-26T11:47:32.797Z,18.65
2019-02-26T11:50:04.120Z,15.73
2019-02-26T11:52:33.798Z,16.73
2019-02-26T11:55:05.917Z,19.87
2019-02-26T11:57:37.003Z,22.97
2019-02-26T12:00:09.193Z,20.40
2019-02-26T12:02:39.238Z,22.83
2019-02-26T12:05:10.771Z,20.03
2019-02-26T12:07:40.022Z,20.17
2019-02-26T12:10:12.372Z,19.77
2019-02-26T12:12:40.954Z,17.73
2019-02-26T12:15:12.468Z,20.93
2019-02-26T12:17:42.651Z,22.33
2019-02-26T12:20:30.568Z,18.07
2019-02-26T12:23:34.425Z,17.60
2019-02-26T12:26:03.999Z,17.33
2019-02-26T12:28:35.942Z,20.13
2019-02-26T12:31:06.901Z,22.03
2019-02-26T12:33:35.165Z,21.45
2019-02-26T12:36:05.235Z,19.00
2019-02-26T12:38:36.731Z,18.47
2019-02-26T12:41:08.618Z,16.77
2019-02-26T12:43:37.436Z,16.50
2019-02-26T12:46:08.343Z,18.90
2019-02-26T12:48:41.869Z,18.40
2019-02-26T12:51:08.985Z,16.70
2019-02-26T12:53:49.101Z,22.90
2019-02-26T12:56:15.683Z,15.07
2019-02-26T12:58:47.990Z,22.03
2019-02-26T13:01:15.919Z,22.90
2019-02-26T13:03:49.685Z,24.67
2019-02-26T13:08:50.821Z,20.60
2019-02-26T13:11:24.259Z,20.93
2019-02-26T13:13:53.345Z,20.27
2019-02-26T13:16:21.890Z,21.03
2019-02-26T13:18:55.402Z,20.57
2019-02-26T13:21:21.911Z,18.60
2019-02-26T13:23:51.149Z,22.93
2019-02-26T13:26:22.417Z,15.98
2019-02-26T13:28:52.835Z,15.53
2019-02-26T13:31:22.760Z,14.73
2019-02-26T13:34:13.868Z,15.73
2019-02-26T13:36:43.677Z,14.17
2019-02-26T13:39:12.194Z,16.37
2019-02-26T13:41:41.419Z,16.13
2019-02-26T13:44:10.665Z,17.47
2019-02-26T13:46:39.674Z,16.30
2019-02-26T13:49:09.000Z,15.17
2019-02-26T13:51:39.120Z,16.00
2019-02-26T13:54:08.139Z,13.10
2019-02-26T13:56:37.218Z,15.47
2019-02-26T13:59:06.479Z,16.03
2019-02-26T14:01:35.629Z,14.90
2019-02-26T14:04:04.829Z,14.00
2019-02-26T14:06:33.922Z,15.90
2019-02-26T14:09:03.003Z,18.47
2019-02-26T14:11:32.047Z,17.47
2019-02-26T14:14:01.088Z,22.60
2019-02-26T14:16:32.668Z,20.40
2019-02-26T14:19:00.954Z,16.80
2019-02-26T14:21:30.071Z,16.67
2019-02-26T14:23:59.025Z,19.83
2019-02-26T14:26:28.046Z,18.47
2019-02-26T14:28:57.105Z,18.33
2019-02-26T14:31:26.235Z,21.17
2019-02-26T14:33:55.311Z,17.30
2019-02-26T14:36:24.490Z,24.00
2019-02-26T14:38:53.612Z,21.90
2019-02-26T14:41:22.826Z,21.13
2019-02-26T14:43:51.951Z,24.00
2019-02-26T14:46:21.007Z,22.80
2019-02-26T14:48:49.951Z,22.00
2019-02-26T14:51:19.046Z,21.47
2019-02-26T14:53:49.218Z,18.73
2019-02-26T14:56:18.681Z,19.63
2019-02-26T14:58:47.839Z,20.93
2019-02-26T15:01:17.193Z,20.23
2019-02-26T15:03:46.335Z,22.80
2019-02-26T15:06:15.666Z,24.57
2019-02-26T15:08:44.780Z,21.37
2019-02-26T15:11:33.091Z,16.23
2019-02-26T15:14:02.756Z,19.03
2019-02-26T15:16:31.965Z,18.23
2019-02-26T15:19:01.170Z,19.77
2019-02-26T15:21:30.410Z,17.00
2019-02-26T15:24:18.774Z,19.53
2019-02-26T15:26:47.933Z,18.60
2019-02-26T15:29:17.134Z,12.53
2019-02-26T15:31:46.279Z,20.43
2019-02-26T15:34:15.244Z,17.27
2019-02-26T15:36:44.187Z,14.70
2019-02-26T15:39:13.220Z,15.73
2019-02-26T15:41:42.154Z,15.40
2019-02-26T15:44:11.948Z,17.17
2019-02-26T15:46:41.859Z,17.23
2019-02-26T15:49:10.988Z,18.33
2019-02-26T15:51:40.021Z,19.77
2019-02-26T15:54:57.668Z,16.67
2019-02-26T15:57:28.580Z,15.83
2019-02-26T16:00:09.525Z,18.63
2019-02-26T16:02:38.551Z,19.03
2019-02-26T16:05:08.471Z,18.37
2019-02-26T16:07:37.688Z,19.83
2019-02-26T16:10:08.806Z,20.17
2019-02-26T16:12:38.194Z,18.27
2019-02-26T16:15:08.608Z,25.17
2019-02-26T16:17:37.732Z,20.05
2019-02-26T16:20:10.083Z,18.73
2019-02-26T16:22:39.214Z,21.13
2019-02-26T16:25:08.534Z,19.87
2019-02-26T16:27:37.951Z,21.90
2019-02-26T16:30:10.036Z,20.63
2019-02-26T16:32:39.576Z,19.20
2019-02-26T16:35:09.347Z,28.90
2019-02-26T16:37:48.505Z,23.90
2019-02-26T16:40:38.482Z,25.40
2019-02-26T16:43:08.828Z,19.40
2019-02-26T16:46:00.400Z,22.43
2019-02-26T16:48:30.128Z,21.00
2019-02-26T16:50:59.544Z,22.53
2019-02-26T16:53:28.620Z,17.90
2019-02-26T16:55:57.717Z,24.50
2019-02-26T16:58:26.762Z,24.70
2019-02-26T17:00:55.697Z,25.73
2019-02-26T17:03:25.031Z,24.80
2019-02-26T17:05:54.093Z,20.47
2019-02-26T17:08:23.072Z,23.00
2019-02-26T17:18:16.528Z,22.97
2019-02-26T17:20:45.512Z,25.03
2019-02-26T17:23:14.537Z,24.07
2019-02-26T17:25:43.517Z,23.43
2019-02-26T17:28:12.923Z,29.23
2019-02-26T17:30:41.998Z,28.53
2019-02-26T17:33:13.270Z,25.33
2019-02-26T17:35:41.785Z,26.83
2019-02-26T17:38:10.731Z,22.90
2019-02-26T17:40:39.783Z,29.82
2019-02-26T17:43:10.788Z,28.67
2019-02-26T17:45:39.709Z,27.93
2019-02-26T17:48:08.871Z,28.50
2019-02-26T17:50:38.060Z,30.87
2019-02-26T17:53:07.340Z,29.53
2019-02-26T17:55:36.520Z,27.57
2019-02-26T17:58:09.812Z,27.67
2019-02-26T18:00:38.743Z,29.07
2019-02-26T18:03:07.820Z,27.00
2019-02-26T18:05:39.318Z,24.13
2019-02-26T18:08:07.617Z,26.77
2019-02-26T18:10:36.821Z,26.63
2019-02-26T18:13:05.988Z,41.10
2019-02-26T18:15:35.101Z,32.97
2019-02-26T18:18:04.229Z,31.60
2019-02-26T18:20:33.296Z,34.23
2019-02-26T18:23:02.296Z,45.97
2019-02-26T18:25:31.351Z,29.90
2019-02-26T18:28:00.413Z,29.03
2019-02-26T18:30:29.509Z,37.90
2019-02-26T18:32:59.132Z,33.80
2019-02-26T18:35:28.417Z,37.63
2019-02-26T18:37:57.524Z,37.03
2019-02-26T18:40:28.442Z,34.90
2019-02-26T18:42:57.284Z,36.40
2019-02-26T18:45:28.084Z,41.40
2019-02-26T18:47:57.279Z,33.63
2019-02-26T18:50:28.604Z,37.53
2019-02-26T18:52:58.779Z,38.37
2019-02-26T18:55:31.708Z,32.67
2019-02-26T18:57:59.020Z,35.83
2019-02-26T19:00:28.359Z,36.07
2019-02-26T19:02:57.424Z,40.93
2019-02-26T19:05:26.670Z,61.27
2019-02-26T19:07:55.846Z,37.43
2019-02-26T19:10:24.811Z,44.63
2019-02-26T19:12:53.995Z,42.17
2019-02-26T19:15:23.055Z,36.57
2019-02-26T19:17:53.087Z,34.70
2019-02-26T19:20:27.043Z,39.67
2019-02-26T19:22:58.511Z,36.93
2019-02-26T19:25:26.739Z,38.17
2019-02-26T19:27:55.816Z,42.47
2019-02-26T19:30:24.836Z,42.57
2019-02-26T19:32:53.839Z,36.73
2019-02-26T19:35:23.515Z,42.43
2019-02-26T19:37:55.112Z,37.47
2019-02-26T19:40:27.825Z,41.20
2019-02-26T19:42:56.903Z,48.47
2019-02-26T19:45:26.048Z,42.97
2019-02-26T19:47:56.073Z,38.53
2019-02-26T19:50:25.883Z,38.87
2019-02-26T19:52:57.263Z,40.67
2019-02-26T19:55:28.234Z,44.33
2019-02-26T19:57:57.283Z,40.93
2019-02-26T20:00:26.349Z,39.07
2019-02-26T20:02:55.439Z,46.47
2019-02-26T20:05:24.495Z,42.17
2019-02-26T20:08:12.637Z,42.60
2019-02-26T20:10:41.549Z,52.93
2019-02-26T20:13:12.761Z,49.43
2019-02-26T20:15:41.143Z,41.60
2019-02-26T20:18:20.034Z,63.57
2019-02-26T20:20:41.253Z,48.23
2019-02-26T20:23:10.376Z,46.10
2019-02-26T20:25:42.533Z,55.40
2019-02-26T20:28:10.049Z,52.20
2019-02-26T20:30:39.076Z,58.27
2019-02-26T20:33:08.000Z,49.23
2019-02-26T20:35:37.013Z,56.00
2019-02-26T20:38:06.069Z,51.20
2019-02-26T20:40:35.018Z,43.37
2019-02-26T20:43:05.365Z,50.90
2019-02-26T20:45:34.607Z,50.67
2019-02-26T20:48:04.881Z,45.47
2019-02-26T20:50:34.511Z,46.27
2019-02-26T20:53:05.685Z,40.73
2019-02-26T20:55:34.317Z,43.33
2019-02-26T20:58:03.394Z,45.57
2019-02-26T21:00:32.531Z,37.67
2019-02-26T21:03:01.543Z,42.50
2019-02-26T21:05:30.593Z,39.60
2019-02-26T21:08:02.626Z,38.37
2019-02-26T21:10:33.366Z,47.53
2019-02-26T21:13:02.504Z,42.10
2019-02-26T21:15:31.736Z,42.47
2019-02-26T21:18:00.748Z,43.93
2019-02-26T21:20:29.652Z,41.17
2019-02-26T21:22:58.668Z,44.70
2019-02-26T21:25:27.711Z,42.80
2019-02-26T21:28:00.801Z,41.20
2019-02-26T21:30:28.788Z,41.37
2019-02-26T21:33:17.808Z,38.30
2019-02-26T21:35:46.757Z,40.93
2019-02-26T21:38:15.749Z,43.37
2019-02-26T21:40:48.806Z,40.50
2019-02-26T21:43:15.478Z,36.63
2019-02-26T21:45:44.601Z,40.67
2019-02-26T21:48:13.596Z,36.10
2019-02-26T21:50:42.710Z,39.87
2019-02-26T21:53:12.751Z,42.87
2019-02-26T21:55:44.468Z,34.67
2019-02-26T21:58:14.937Z,36.17
2019-02-26T22:00:43.864Z,35.20
2019-02-26T22:03:12.863Z,36.83
2019-02-26T22:05:41.916Z,37.37
2019-02-26T22:08:10.917Z,33.33
2019-02-26T22:10:40.198Z,38.07
2019-02-26T22:13:10.741Z,41.73
2019-02-26T22:15:42.075Z,46.50
2019-02-26T22:18:10.403Z,51.73
2019-02-26T22:20:39.404Z,41.67
2019-02-26T22:23:08.445Z,38.63
2019-02-26T22:25:39.268Z,45.47
2019-02-26T22:28:08.729Z,43.60
2019-02-26T22:30:38.192Z,41.30
2019-02-26T22:33:07.996Z,42.13
2019-02-26T22:35:37.546Z,41.00
2019-02-26T22:38:06.510Z,37.63
2019-02-26T22:40:35.427Z,42.30
2019-02-26T22:43:04.565Z,34.77
2019-02-26T22:45:33.576Z,38.93
2019-02-26T22:48:02.527Z,38.93
2019-02-26T22:50:31.583Z,41.57
2019-02-26T22:53:03.818Z,41.40
2019-02-26T22:55:31.200Z,37.87
2019-02-26T22:58:02.518Z,39.17
2019-02-26T23:00:55.904Z,36.57
2019-02-26T23:03:25.081Z,41.20
2019-02-26T23:05:54.069Z,42.27
2019-02-26T23:08:23.433Z,43.70
2019-02-26T23:10:57.016Z,40.83
2019-02-26T23:13:23.519Z,39.20
2019-02-26T23:15:52.599Z,41.47
2019-02-26T23:18:22.120Z,37.20
2019-02-26T23:20:51.456Z,37.97
2019-02-26T23:23:21.887Z,40.10
2019-02-26T23:25:51.401Z,38.87
2019-02-26T23:28:21.871Z,40.03
2019-02-26T23:30:51.197Z,39.57
2019-02-26T23:33:20.285Z,43.53
2019-02-26T23:35:49.689Z,42.43
2019-02-26T23:38:18.671Z,43.07
2019-02-26T23:40:47.783Z,42.70
2019-02-26T23:43:16.867Z,37.27
2019-02-26T23:45:45.811Z,49.40
2019-02-26T23:48:14.933Z,45.47
2019-02-26T23:50:47.122Z,37.40
2019-02-26T23:53:14.552Z,49.10
2019-02-26T23:55:46.305Z,44.13
2019-02-26T23:58:14.147Z,44.83
